createdAt,value
2018-05-27T00:00:50.968Z,0.00
2018-05-27T00:01:50.840Z,0.00
2018-05-27T00:02:50.717Z,0.00
2018-05-27T00:03:50.600Z,0.00
2018-05-27T00:04:50.476Z,0.00
2018-05-27T00:05:50.352Z,0.00
2018-05-27T00:06:50.228Z,0.00
2018-05-27T00:07:50.107Z,0.00
2018-05-27T00:08:49.986Z,0.00
2018-05-27T00:09:49.864Z,0.00
2018-05-27T00:10:49.743Z,0.00
2018-05-27T00:11:49.619Z,0.00
2018-05-27T00:12:49.495Z,0.00
2018-05-27T00:13:49.412Z,0.00
2018-05-27T00:14:49.250Z,0.00
2018-05-27T00:15:49.130Z,0.00
2018-05-27T00:16:49.008Z,0.00
2018-05-27T00:17:48.884Z,0.00
2018-05-27T00:18:48.759Z,0.00
2018-05-27T00:19:48.641Z,0.00
2018-05-27T00:20:48.516Z,0.00
2018-05-27T00:21:48.394Z,0.00
2018-05-27T00:22:48.272Z,0.00
2018-05-27T00:23:48.148Z,0.00
2018-05-27T00:24:48.029Z,0.00
2018-05-27T00:25:47.909Z,0.00
2018-05-27T00:26:47.781Z,0.00
2018-05-27T00:27:47.659Z,0.00
2018-05-27T00:28:47.539Z,0.00
2018-05-27T00:29:47.413Z,0.00
2018-05-27T00:30:47.291Z,0.00
2018-05-27T00:31:47.171Z,0.00
2018-05-27T00:32:47.051Z,0.00
2018-05-27T00:33:46.924Z,0.00
2018-05-27T00:34:46.802Z,0.00
2018-05-27T00:35:46.681Z,0.00
2018-05-27T00:36:46.561Z,0.00
2018-05-27T00:37:46.434Z,0.00
2018-05-27T00:38:46.318Z,0.00
2018-05-27T00:39:46.191Z,0.00
2018-05-27T00:40:46.070Z,0.00
2018-05-27T00:41:45.953Z,0.00
2018-05-27T00:42:45.830Z,0.00
2018-05-27T00:43:45.700Z,0.00
2018-05-27T00:44:45.580Z,0.00
2018-05-27T00:45:45.460Z,0.00
2018-05-27T00:46:45.333Z,0.00
2018-05-27T00:47:45.210Z,0.00
2018-05-27T00:48:45.090Z,0.00
2018-05-27T00:49:44.966Z,0.00
2018-05-27T00:50:44.846Z,0.00
2018-05-27T00:51:44.722Z,0.00
2018-05-27T00:52:44.598Z,0.00
2018-05-27T00:53:44.475Z,0.00
2018-05-27T00:54:44.349Z,0.00
2018-05-27T00:55:44.231Z,0.00
2018-05-27T00:56:44.105Z,0.00
2018-05-27T00:57:43.982Z,0.00
2018-05-27T00:58:43.859Z,0.00
2018-05-27T00:59:43.735Z,0.00
2018-05-27T01:00:43.614Z,0.00
2018-05-27T01:01:43.487Z,0.00
2018-05-27T01:02:43.365Z,0.00
2018-05-27T01:03:43.245Z,0.00
2018-05-27T01:04:43.122Z,0.00
2018-05-27T01:05:42.998Z,0.00
2018-05-27T01:06:42.878Z,0.00
2018-05-27T01:07:42.751Z,0.00
2018-05-27T01:08:42.628Z,0.00
2018-05-27T01:09:42.504Z,0.00
2018-05-27T01:10:42.383Z,0.00
2018-05-27T01:11:42.260Z,0.00
2018-05-27T01:12:42.138Z,0.00
2018-05-27T01:13:42.012Z,0.00
2018-05-27T01:14:41.889Z,0.00
2018-05-27T01:15:41.764Z,0.00
2018-05-27T01:16:41.644Z,0.00
2018-05-27T01:17:41.519Z,0.00
2018-05-27T01:18:41.394Z,0.00
2018-05-27T01:19:41.271Z,0.00
2018-05-27T01:20:41.149Z,0.00
2018-05-27T01:21:41.030Z,0.00
2018-05-27T01:22:40.903Z,0.00
2018-05-27T01:23:40.792Z,0.00
2018-05-27T01:24:40.656Z,0.00
2018-05-27T01:25:40.530Z,0.00
2018-05-27T01:26:40.408Z,0.00
2018-05-27T01:27:40.284Z,0.00
2018-05-27T01:28:40.164Z,0.00
2018-05-27T01:29:40.038Z,0.00
2018-05-27T01:30:39.916Z,0.00
2018-05-27T01:31:39.792Z,0.00
2018-05-27T01:32:39.667Z,0.00
2018-05-27T01:33:39.547Z,0.00
2018-05-27T01:34:39.421Z,0.00
2018-05-27T01:35:39.297Z,0.00
2018-05-27T01:36:39.177Z,0.00
2018-05-27T01:37:39.048Z,0.00
2018-05-27T01:38:38.924Z,0.00
2018-05-27T01:39:38.802Z,0.00
2018-05-27T01:40:38.679Z,0.00
2018-05-27T01:41:38.554Z,0.00
2018-05-27T01:42:38.430Z,0.00
2018-05-27T01:43:38.313Z,0.00
2018-05-27T01:44:38.182Z,0.00
2018-05-27T01:45:38.059Z,0.00
2018-05-27T01:46:37.937Z,0.00
2018-05-27T01:47:37.814Z,0.00
2018-05-27T01:48:37.691Z,0.00
2018-05-27T01:49:37.564Z,0.00
2018-05-27T01:50:37.448Z,0.00
2018-05-27T01:51:37.318Z,0.00
2018-05-27T01:52:37.195Z,0.00
2018-05-27T01:53:37.070Z,0.00
2018-05-27T01:54:36.949Z,0.00
2018-05-27T01:55:36.824Z,0.00
2018-05-27T01:56:36.702Z,0.00
2018-05-27T01:57:36.576Z,0.00
2018-05-27T01:58:36.451Z,0.00
2018-05-27T01:59:36.331Z,0.00
2018-05-27T02:00:36.205Z,0.00
2018-05-27T02:01:36.086Z,0.00
2018-05-27T02:02:35.957Z,0.00
2018-05-27T02:03:35.836Z,0.00
2018-05-27T02:04:35.713Z,0.00
2018-05-27T02:05:35.589Z,0.00
2018-05-27T02:06:35.465Z,0.00
2018-05-27T02:07:35.342Z,0.00
2018-05-27T02:08:35.216Z,0.00
2018-05-27T02:09:35.095Z,0.00
2018-05-27T02:10:34.968Z,0.00
2018-05-27T02:11:34.848Z,0.00
2018-05-27T02:12:34.726Z,0.00
2018-05-27T02:13:34.597Z,0.00
2018-05-27T02:14:34.476Z,0.00
2018-05-27T02:15:34.355Z,0.00
2018-05-27T02:16:34.227Z,0.00
2018-05-27T02:17:34.103Z,0.00
2018-05-27T02:18:33.980Z,0.00
2018-05-27T02:19:33.858Z,0.00
2018-05-27T02:20:33.733Z,0.00
2018-05-27T02:21:33.610Z,0.00
2018-05-27T02:22:33.486Z,0.00
2018-05-27T02:23:33.363Z,0.00
2018-05-27T02:24:33.239Z,0.00
2018-05-27T02:25:33.113Z,0.00
2018-05-27T02:26:33.022Z,0.00
2018-05-27T02:27:32.865Z,0.00
2018-05-27T02:28:32.744Z,0.00
2018-05-27T02:29:32.617Z,0.00
2018-05-27T02:30:32.493Z,0.00
2018-05-27T02:31:32.371Z,0.00
2018-05-27T02:32:32.252Z,0.00
2018-05-27T02:33:32.124Z,0.00
2018-05-27T02:34:31.998Z,0.00
2018-05-27T02:35:31.876Z,0.00
2018-05-27T02:36:31.755Z,0.00
2018-05-27T02:37:31.630Z,0.00
2018-05-27T02:38:31.507Z,0.00
2018-05-27T02:39:31.385Z,0.00
2018-05-27T02:40:31.257Z,0.00
2018-05-27T02:41:31.134Z,0.00
2018-05-27T02:42:31.012Z,0.00
2018-05-27T02:43:30.886Z,0.00
2018-05-27T02:44:30.764Z,0.00
2018-05-27T02:45:30.641Z,0.00
2018-05-27T02:46:30.517Z,0.00
2018-05-27T02:47:30.396Z,0.00
2018-05-27T02:48:30.272Z,0.00
2018-05-27T02:49:30.148Z,0.00
2018-05-27T02:50:30.075Z,0.00
2018-05-27T02:51:29.897Z,0.00
2018-05-27T02:52:29.778Z,0.00
2018-05-27T02:53:29.649Z,0.00
2018-05-27T02:54:29.526Z,0.00
2018-05-27T02:55:29.405Z,0.00
2018-05-27T02:56:29.278Z,0.00
2018-05-27T02:57:29.153Z,0.00
2018-05-27T02:58:29.030Z,0.00
2018-05-27T02:59:28.905Z,0.00
2018-05-27T03:00:28.784Z,0.00
2018-05-27T03:01:28.656Z,0.00
2018-05-27T03:02:28.534Z,0.00
2018-05-27T03:03:28.411Z,0.00
2018-05-27T03:04:28.287Z,0.00
2018-05-27T03:05:28.163Z,0.00
2018-05-27T03:06:28.038Z,0.00
2018-05-27T03:07:27.915Z,0.00
2018-05-27T03:08:27.788Z,0.00
2018-05-27T03:09:27.667Z,0.00
2018-05-27T03:10:27.540Z,0.00
2018-05-27T03:11:27.418Z,0.00
2018-05-27T03:12:27.294Z,4.00
2018-05-27T03:13:27.170Z,4.00
2018-05-27T03:14:27.045Z,4.00
2018-05-27T03:15:26.930Z,4.00
2018-05-27T03:16:26.797Z,4.00
2018-05-27T03:17:26.670Z,4.00
2018-05-27T03:18:26.549Z,8.00
2018-05-27T03:19:26.421Z,4.00
2018-05-27T03:20:26.299Z,8.00
2018-05-27T03:21:26.175Z,8.00
2018-05-27T03:22:26.053Z,8.00
2018-05-27T03:23:25.925Z,8.00
2018-05-27T03:24:25.801Z,12.00
2018-05-27T03:25:25.680Z,12.00
2018-05-27T03:26:25.553Z,16.00
2018-05-27T03:27:25.429Z,16.00
2018-05-27T03:28:25.307Z,20.00
2018-05-27T03:29:25.182Z,20.00
2018-05-27T03:30:25.060Z,24.00
2018-05-27T03:31:24.933Z,28.00
2018-05-27T03:32:24.809Z,28.00
2018-05-27T03:33:24.683Z,32.00
2018-05-27T03:34:24.558Z,36.00
2018-05-27T03:35:24.442Z,36.00
2018-05-27T03:36:24.311Z,40.00
2018-05-27T03:37:24.188Z,44.00
2018-05-27T03:38:24.063Z,48.00
2018-05-27T03:39:23.938Z,52.00
2018-05-27T03:40:23.817Z,56.00
2018-05-27T03:41:23.689Z,56.00
2018-05-27T03:42:23.569Z,60.00
2018-05-27T03:43:23.444Z,64.00
2018-05-27T03:44:23.317Z,68.00
2018-05-27T03:45:23.193Z,72.00
2018-05-27T03:46:23.070Z,76.00
2018-05-27T03:47:22.942Z,80.00
2018-05-27T03:48:22.821Z,84.00
2018-05-27T03:49:22.696Z,92.00
2018-05-27T03:50:22.571Z,100.00
2018-05-27T03:51:22.449Z,108.00
2018-05-27T03:52:22.323Z,112.00
2018-05-27T03:53:22.203Z,124.00
2018-05-27T03:54:22.074Z,128.00
2018-05-27T03:55:21.950Z,136.00
2018-05-27T03:56:21.831Z,144.00
2018-05-27T03:57:21.705Z,152.00
2018-05-27T03:58:21.577Z,160.00
2018-05-27T03:59:21.455Z,168.00
2018-05-27T04:00:21.330Z,172.00
2018-05-27T04:01:21.206Z,184.00
2018-05-27T04:02:21.081Z,188.00
2018-05-27T04:03:20.956Z,196.00
2018-05-27T04:04:20.836Z,204.00
2018-05-27T04:05:20.712Z,212.00
2018-05-27T04:06:20.590Z,220.00
2018-05-27T04:07:20.459Z,228.00
2018-05-27T04:08:20.337Z,232.00
2018-05-27T04:09:20.209Z,236.00
2018-05-27T04:10:20.088Z,248.00
2018-05-27T04:11:19.961Z,256.00
2018-05-27T04:12:19.840Z,264.00
2018-05-27T04:13:19.713Z,272.00
2018-05-27T04:14:19.588Z,276.00
2018-05-27T04:15:19.465Z,288.00
2018-05-27T04:16:19.341Z,292.00
2018-05-27T04:17:19.213Z,308.00
2018-05-27T04:18:19.088Z,316.00
2018-05-27T04:19:18.968Z,328.00
2018-05-27T04:20:18.842Z,336.00
2018-05-27T04:21:18.717Z,344.00
2018-05-27T04:22:18.590Z,352.00
2018-05-27T04:23:18.466Z,360.00
2018-05-27T04:24:18.342Z,368.00
2018-05-27T04:25:18.216Z,380.00
2018-05-27T04:26:18.093Z,388.00
2018-05-27T04:27:17.973Z,400.00
2018-05-27T04:28:17.846Z,412.00
2018-05-27T04:29:17.721Z,424.00
2018-05-27T04:30:17.595Z,440.00
2018-05-27T04:31:17.471Z,456.00
2018-05-27T04:32:17.347Z,480.00
2018-05-27T04:33:17.219Z,504.00
2018-05-27T04:34:17.098Z,520.00
2018-05-27T04:35:16.971Z,548.00
2018-05-27T04:36:16.846Z,592.00
2018-05-27T04:37:16.723Z,648.00
2018-05-27T04:38:16.597Z,672.00
2018-05-27T04:39:16.477Z,676.00
2018-05-27T04:40:16.359Z,684.00
2018-05-27T04:41:16.225Z,692.00
2018-05-27T04:42:16.101Z,688.00
2018-05-27T04:43:15.977Z,680.00
2018-05-27T04:44:15.853Z,636.00
2018-05-27T04:45:15.727Z,660.00
2018-05-27T04:46:15.604Z,656.00
2018-05-27T04:47:15.485Z,616.00
2018-05-27T04:48:15.361Z,568.00
2018-05-27T04:49:15.232Z,576.00
2018-05-27T04:50:15.108Z,600.00
2018-05-27T04:51:14.983Z,616.00
2018-05-27T04:52:14.859Z,584.00
2018-05-27T04:53:14.738Z,568.00
2018-05-27T04:54:14.615Z,588.00
2018-05-27T04:55:14.491Z,628.00
2018-05-27T04:56:14.365Z,644.00
2018-05-27T04:57:14.242Z,636.00
2018-05-27T04:58:14.119Z,620.00
2018-05-27T04:59:13.995Z,656.00
2018-05-27T05:00:13.871Z,696.00
2018-05-27T05:01:13.749Z,692.00
2018-05-27T05:02:13.623Z,672.00
2018-05-27T05:03:13.499Z,676.00
2018-05-27T05:04:13.378Z,708.00
2018-05-27T05:05:13.254Z,752.00
2018-05-27T05:06:13.131Z,788.00
2018-05-27T05:07:13.006Z,816.00
2018-05-27T05:08:12.885Z,828.00
2018-05-27T05:09:12.758Z,852.00
2018-05-27T05:10:12.636Z,872.00
2018-05-27T05:11:12.512Z,892.00
2018-05-27T05:12:12.390Z,888.00
2018-05-27T05:13:12.268Z,884.00
2018-05-27T05:14:12.145Z,892.00
2018-05-27T05:15:12.019Z,864.00
2018-05-27T05:16:11.897Z,772.00
2018-05-27T05:17:11.773Z,860.00
2018-05-27T05:18:11.651Z,876.00
2018-05-27T05:19:11.530Z,884.00
2018-05-27T05:20:11.406Z,880.00
2018-05-27T05:21:11.283Z,876.00
2018-05-27T05:22:11.190Z,872.00
2018-05-27T05:23:11.038Z,852.00
2018-05-27T05:24:10.915Z,852.00
2018-05-27T05:25:10.794Z,844.00
2018-05-27T05:26:10.671Z,824.00
2018-05-27T05:27:10.549Z,812.00
2018-05-27T05:28:10.427Z,816.00
2018-05-27T05:29:10.302Z,828.00
2018-05-27T05:30:10.178Z,836.00
2018-05-27T05:31:10.059Z,840.00
2018-05-27T05:32:09.935Z,844.00
2018-05-27T05:33:09.812Z,852.00
2018-05-27T05:34:09.689Z,876.00
2018-05-27T05:35:09.568Z,888.00
2018-05-27T05:36:09.445Z,924.00
2018-05-27T05:37:09.323Z,928.00
2018-05-27T05:38:09.204Z,932.00
2018-05-27T05:39:09.080Z,940.00
2018-05-27T05:40:08.956Z,956.00
2018-05-27T05:41:08.835Z,944.00
2018-05-27T05:42:08.711Z,944.00
2018-05-27T05:43:08.591Z,948.00
2018-05-27T05:44:08.467Z,964.00
2018-05-27T05:45:08.345Z,972.00
2018-05-27T05:46:08.222Z,1004.00
2018-05-27T05:47:08.100Z,1008.00
2018-05-27T05:48:08.001Z,1016.00
2018-05-27T05:49:07.852Z,1024.00
2018-05-27T05:50:07.732Z,1028.00
2018-05-27T05:51:07.611Z,1020.00
2018-05-27T05:52:07.485Z,1032.00
2018-05-27T05:53:07.363Z,1036.00
2018-05-27T05:54:07.242Z,1048.00
2018-05-27T05:55:07.121Z,1056.00
2018-05-27T05:56:06.997Z,1056.00
2018-05-27T05:57:06.904Z,1068.00
2018-05-27T05:58:06.889Z,1060.00
2018-05-27T05:59:06.631Z,1024.00
2018-05-27T06:00:06.509Z,1012.00
2018-05-27T06:01:06.390Z,956.00
2018-05-27T06:02:06.264Z,956.00
2018-05-27T06:03:06.145Z,900.00
2018-05-27T06:04:06.021Z,1012.00
2018-05-27T06:05:06.039Z,1052.00
2018-05-27T06:06:05.777Z,1064.00
2018-05-27T06:07:05.655Z,1080.00
2018-05-27T06:08:05.532Z,1072.00
2018-05-27T06:09:05.408Z,1080.00
2018-05-27T06:10:05.455Z,1076.00
2018-05-27T06:11:05.167Z,1056.00
2018-05-27T06:12:05.043Z,1072.00
2018-05-27T06:13:04.924Z,1012.00
2018-05-27T06:14:04.800Z,1116.00
2018-05-27T06:15:04.679Z,1116.00
2018-05-27T06:16:04.556Z,1116.00
2018-05-27T06:17:04.435Z,1128.00
2018-05-27T06:18:04.310Z,1128.00
2018-05-27T06:19:04.192Z,1132.00
2018-05-27T06:20:04.067Z,1136.00
2018-05-27T06:21:03.949Z,1144.00
2018-05-27T06:22:03.837Z,1140.00
2018-05-27T06:23:03.703Z,1140.00
2018-05-27T06:24:03.581Z,1152.00
2018-05-27T06:25:03.457Z,1152.00
2018-05-27T06:26:03.603Z,1156.00
2018-05-27T06:27:03.213Z,1160.00
2018-05-27T06:28:03.091Z,1168.00
2018-05-27T06:29:02.970Z,1164.00
2018-05-27T06:30:02.848Z,1172.00
2018-05-27T06:31:02.730Z,1176.00
2018-05-27T06:32:02.621Z,1180.00
2018-05-27T06:33:02.483Z,1188.00
2018-05-27T06:34:02.363Z,1192.00
2018-05-27T06:35:02.239Z,1196.00
2018-05-27T06:36:02.120Z,1192.00
2018-05-27T06:37:01.997Z,1200.00
2018-05-27T06:38:01.893Z,1204.00
2018-05-27T06:39:01.758Z,1212.00
2018-05-27T06:40:01.634Z,1212.00
2018-05-27T06:41:01.509Z,1208.00
2018-05-27T06:42:01.392Z,1216.00
2018-05-27T06:43:01.267Z,1208.00
2018-05-27T06:44:01.147Z,1196.00
2018-05-27T06:45:01.025Z,1200.00
2018-05-27T06:46:00.905Z,1204.00
2018-05-27T06:47:00.787Z,1212.00
2018-05-27T06:48:00.730Z,1232.00
2018-05-27T06:49:00.541Z,1244.00
2018-05-27T06:50:00.421Z,1248.00
2018-05-27T06:51:00.295Z,1248.00
2018-05-27T06:52:00.183Z,1252.00
2018-05-27T06:53:00.055Z,1248.00
2018-05-27T06:53:59.933Z,1256.00
2018-05-27T06:54:59.812Z,1256.00
2018-05-27T06:55:59.772Z,1260.00
2018-05-27T06:56:59.567Z,1268.00
2018-05-27T06:57:59.451Z,1248.00
2018-05-27T06:58:59.330Z,1212.00
2018-05-27T06:59:59.208Z,1232.00
2018-05-27T07:00:59.086Z,1244.00
2018-05-27T07:01:58.965Z,1304.00
2018-05-27T07:02:59.157Z,1304.00
2018-05-27T07:03:58.723Z,1300.00
2018-05-27T07:04:58.651Z,1304.00
2018-05-27T07:05:58.480Z,1308.00
2018-05-27T07:06:58.358Z,1304.00
2018-05-27T07:07:58.238Z,1304.00
2018-05-27T07:08:58.126Z,1300.00
2018-05-27T07:09:57.997Z,1296.00
2018-05-27T07:10:57.873Z,1300.00
2018-05-27T07:11:57.911Z,1300.00
2018-05-27T07:12:57.638Z,1304.00
2018-05-27T07:13:57.513Z,1304.00
2018-05-27T07:14:57.395Z,1308.00
2018-05-27T07:15:57.272Z,1304.00
2018-05-27T07:16:57.151Z,1268.00
2018-05-27T07:17:57.031Z,1304.00
2018-05-27T07:18:56.911Z,1292.00
2018-05-27T07:19:56.789Z,1260.00
2018-05-27T07:20:56.670Z,1236.00
2018-05-27T07:21:56.547Z,1232.00
2018-05-27T07:22:56.431Z,1260.00
2018-05-27T07:23:56.307Z,1276.00
2018-05-27T07:24:56.186Z,1288.00
2018-05-27T07:25:56.066Z,1292.00
2018-05-27T07:26:55.946Z,1296.00
2018-05-27T07:27:55.833Z,1300.00
2018-05-27T07:28:55.705Z,1304.00
2018-05-27T07:29:55.585Z,1308.00
2018-05-27T07:30:55.464Z,1312.00
2018-05-27T07:31:55.346Z,1324.00
2018-05-27T07:32:55.222Z,1332.00
2018-05-27T07:33:55.104Z,1344.00
2018-05-27T07:34:54.982Z,1348.00
2018-05-27T07:35:54.862Z,1356.00
2018-05-27T07:36:54.741Z,1360.00
2018-05-27T07:37:54.625Z,1364.00
2018-05-27T07:38:54.501Z,1368.00
2018-05-27T07:39:54.380Z,1372.00
2018-05-27T07:40:54.261Z,1376.00
2018-05-27T07:41:54.141Z,1380.00
2018-05-27T07:42:54.021Z,1388.00
2018-05-27T07:43:53.904Z,1392.00
2018-05-27T07:44:53.780Z,1392.00
2018-05-27T07:45:53.664Z,1400.00
2018-05-27T07:46:53.542Z,1400.00
2018-05-27T07:47:53.423Z,1400.00
2018-05-27T07:48:53.303Z,1408.00
2018-05-27T07:49:53.181Z,1412.00
2018-05-27T07:50:53.065Z,1416.00
2018-05-27T07:51:52.941Z,1424.00
2018-05-27T07:52:52.823Z,1428.00
2018-05-27T07:53:52.707Z,1436.00
2018-05-27T07:54:52.591Z,1444.00
2018-05-27T07:55:52.467Z,1448.00
2018-05-27T07:56:59.236Z,1456.00
2018-05-27T07:57:52.238Z,1384.00
2018-05-27T07:58:52.116Z,1476.00
2018-05-27T07:59:51.994Z,1472.00
2018-05-27T08:00:51.884Z,1476.00
2018-05-27T08:01:51.757Z,1480.00
2018-05-27T08:02:52.243Z,1484.00
2018-05-27T08:03:51.517Z,1492.00
2018-05-27T08:04:51.392Z,1488.00
2018-05-27T08:05:51.273Z,1440.00
2018-05-27T08:06:51.156Z,1520.00
2018-05-27T08:07:51.034Z,1520.00
2018-05-27T08:08:50.914Z,1516.00
2018-05-27T08:09:50.797Z,1512.00
2018-05-27T08:10:50.677Z,1520.00
2018-05-27T08:11:50.559Z,1528.00
2018-05-27T08:12:50.440Z,1524.00
2018-05-27T08:13:50.319Z,1536.00
2018-05-27T08:14:50.202Z,1544.00
2018-05-27T08:15:50.087Z,1540.00
2018-05-27T08:16:49.963Z,1544.00
2018-05-27T08:17:49.845Z,1548.00
2018-05-27T08:18:49.725Z,1556.00
2018-05-27T08:19:49.671Z,1568.00
2018-05-27T08:20:49.490Z,1584.00
2018-05-27T08:21:49.375Z,1492.00
2018-05-27T08:22:49.253Z,1572.00
2018-05-27T08:23:49.133Z,1560.00
2018-05-27T08:24:49.015Z,1552.00
2018-05-27T08:25:48.896Z,1552.00
2018-05-27T08:26:48.780Z,1548.00
2018-05-27T08:27:48.659Z,1548.00
2018-05-27T08:28:48.542Z,1544.00
2018-05-27T08:29:48.421Z,1556.00
2018-05-27T08:30:48.307Z,1536.00
2018-05-27T08:31:48.188Z,1552.00
2018-05-27T08:32:48.067Z,1552.00
2018-05-27T08:33:47.952Z,1548.00
2018-05-27T08:34:47.838Z,1552.00
2018-05-27T08:35:47.714Z,1568.00
2018-05-27T08:36:47.597Z,1516.00
2018-05-27T08:37:47.478Z,1212.00
2018-05-27T08:38:47.362Z,1336.00
2018-05-27T08:39:47.247Z,1308.00
2018-05-27T08:40:47.124Z,1532.00
2018-05-27T08:41:47.008Z,1560.00
2018-05-27T08:42:46.890Z,1424.00
2018-05-27T08:43:46.770Z,1624.00
2018-05-27T08:44:46.652Z,1520.00
2018-05-27T08:45:46.535Z,1776.00
2018-05-27T08:46:46.415Z,1892.00
2018-05-27T08:47:46.295Z,2236.00
2018-05-27T08:48:46.176Z,2472.00
2018-05-27T08:49:46.062Z,2572.00
2018-05-27T08:50:45.942Z,3052.00
2018-05-27T08:51:45.830Z,3236.00
2018-05-27T08:52:45.706Z,3024.00
2018-05-27T08:53:45.586Z,3276.00
2018-05-27T08:54:45.477Z,3252.00
2018-05-27T08:55:45.349Z,3216.00
2018-05-27T08:56:45.231Z,3196.00
2018-05-27T08:57:45.115Z,3180.00
2018-05-27T08:58:44.997Z,3124.00
2018-05-27T08:59:44.881Z,3048.00
2018-05-27T09:00:44.763Z,2928.00
2018-05-27T09:01:44.644Z,2804.00
2018-05-27T09:02:44.526Z,2704.00
2018-05-27T09:03:44.456Z,2644.00
2018-05-27T09:04:44.290Z,2636.00
2018-05-27T09:05:44.174Z,2616.00
2018-05-27T09:06:44.054Z,2512.00
2018-05-27T09:07:43.937Z,2616.00
2018-05-27T09:08:43.822Z,2612.00
2018-05-27T09:09:43.701Z,2648.00
2018-05-27T09:10:43.586Z,2732.00
2018-05-27T09:11:43.471Z,2836.00
2018-05-27T09:12:43.353Z,3116.00
2018-05-27T09:13:43.237Z,3048.00
2018-05-27T09:14:43.127Z,3200.00
2018-05-27T09:15:42.999Z,3628.00
2018-05-27T09:16:42.884Z,3860.00
2018-05-27T09:17:42.765Z,4024.00
2018-05-27T09:18:42.647Z,4280.00
2018-05-27T09:19:42.531Z,4488.00
2018-05-27T09:20:42.417Z,4664.00
2018-05-27T09:21:42.298Z,4660.00
2018-05-27T09:22:42.531Z,4804.00
2018-05-27T09:23:42.068Z,4964.00
2018-05-27T09:24:41.949Z,5128.00
2018-05-27T09:25:41.833Z,5280.00
2018-05-27T09:26:41.717Z,5088.00
2018-05-27T09:27:41.601Z,5096.00
2018-05-27T09:28:41.487Z,4664.00
2018-05-27T09:29:41.365Z,4168.00
2018-05-27T09:30:41.250Z,3768.00
2018-05-27T09:31:41.135Z,3716.00
2018-05-27T09:32:41.017Z,3744.00
2018-05-27T09:33:40.898Z,3780.00
2018-05-27T09:34:40.793Z,3792.00
2018-05-27T09:35:40.667Z,3780.00
2018-05-27T09:36:40.554Z,3816.00
2018-05-27T09:37:40.432Z,4192.00
2018-05-27T09:38:40.319Z,4488.00
2018-05-27T09:39:40.198Z,4640.00
2018-05-27T09:40:40.083Z,4492.00
2018-05-27T09:41:39.968Z,4504.00
2018-05-27T09:42:39.851Z,4224.00
2018-05-27T09:43:39.734Z,3876.00
2018-05-27T09:44:39.615Z,3532.00
2018-05-27T09:45:39.502Z,3380.00
2018-05-27T09:46:39.383Z,3272.00
2018-05-27T09:47:39.267Z,3180.00
2018-05-27T09:48:39.152Z,3116.00
2018-05-27T09:49:39.033Z,2928.00
2018-05-27T09:50:38.917Z,2560.00
2018-05-27T09:51:38.802Z,2804.00
2018-05-27T09:52:38.684Z,2824.00
2018-05-27T09:53:38.566Z,2772.00
2018-05-27T09:54:38.450Z,2792.00
2018-05-27T09:55:38.335Z,2892.00
2018-05-27T09:56:38.218Z,2932.00
2018-05-27T09:57:38.102Z,3000.00
2018-05-27T09:58:37.987Z,3240.00
2018-05-27T09:59:37.869Z,3308.00
2018-05-27T10:00:37.753Z,3452.00
2018-05-27T10:01:37.640Z,3640.00
2018-05-27T10:02:37.520Z,3792.00
2018-05-27T10:03:37.412Z,4164.00
2018-05-27T10:04:37.288Z,4756.00
2018-05-27T10:05:37.173Z,4916.00
2018-05-27T10:06:37.055Z,4876.00
2018-05-27T10:07:36.940Z,5036.00
2018-05-27T10:08:36.822Z,5236.00
2018-05-27T10:09:36.707Z,5340.00
2018-05-27T10:10:36.599Z,5560.00
2018-05-27T10:11:36.477Z,6000.00
2018-05-27T10:12:36.360Z,6300.00
2018-05-27T10:13:36.244Z,6492.00
2018-05-27T10:14:36.129Z,6628.00
2018-05-27T10:15:36.014Z,6992.00
2018-05-27T10:16:35.896Z,6728.00
2018-05-27T10:17:35.782Z,6256.00
2018-05-27T10:18:35.669Z,6036.00
2018-05-27T10:19:35.554Z,5920.00
2018-05-27T10:20:35.437Z,5880.00
2018-05-27T10:21:35.321Z,5532.00
2018-05-27T10:22:35.213Z,5148.00
2018-05-27T10:23:35.092Z,4824.00
2018-05-27T10:24:34.978Z,4536.00
2018-05-27T10:25:34.862Z,4372.00
2018-05-27T10:26:34.749Z,4160.00
2018-05-27T10:27:34.635Z,4076.00
2018-05-27T10:28:34.518Z,3668.00
2018-05-27T10:29:34.400Z,3788.00
2018-05-27T10:30:34.288Z,3644.00
2018-05-27T10:31:34.175Z,3828.00
2018-05-27T10:32:34.058Z,3584.00
2018-05-27T10:33:33.943Z,3764.00
2018-05-27T10:34:33.829Z,3904.00
2018-05-27T10:35:33.710Z,4388.00
2018-05-27T10:36:33.602Z,5020.00
2018-05-27T10:37:33.482Z,5004.00
2018-05-27T10:38:33.367Z,5600.00
2018-05-27T10:39:33.252Z,6220.00
2018-05-27T10:40:33.137Z,6000.00
2018-05-27T10:41:33.021Z,6792.00
2018-05-27T10:42:32.906Z,6884.00
2018-05-27T10:43:32.793Z,6736.00
2018-05-27T10:44:32.675Z,7168.00
2018-05-27T10:45:32.560Z,7328.00
2018-05-27T10:46:32.446Z,7368.00
2018-05-27T10:47:32.331Z,7528.00
2018-05-27T10:48:32.220Z,7780.00
2018-05-27T10:49:32.101Z,7740.00
2018-05-27T10:50:31.989Z,7376.00
2018-05-27T10:51:31.872Z,6548.00
2018-05-27T10:52:31.761Z,6748.00
2018-05-27T10:53:31.647Z,6632.00
2018-05-27T10:54:31.530Z,6472.00
2018-05-27T10:55:31.417Z,6564.00
2018-05-27T10:56:31.303Z,6592.00
2018-05-27T10:57:31.190Z,6532.00
2018-05-27T10:58:31.076Z,6480.00
2018-05-27T10:59:30.963Z,6260.00
2018-05-27T11:00:30.846Z,6036.00
2018-05-27T11:01:30.739Z,5916.00
2018-05-27T11:02:30.626Z,6124.00
2018-05-27T11:03:30.509Z,6156.00
2018-05-27T11:04:30.395Z,5920.00
2018-05-27T11:05:30.281Z,5520.00
2018-05-27T11:06:30.217Z,4800.00
2018-05-27T11:07:30.057Z,4656.00
2018-05-27T11:08:29.940Z,4824.00
2018-05-27T11:09:29.835Z,4664.00
2018-05-27T11:10:29.718Z,4332.00
2018-05-27T11:11:29.600Z,4532.00
2018-05-27T11:12:29.488Z,4876.00
2018-05-27T11:13:29.376Z,5200.00
2018-05-27T11:14:29.262Z,5248.00
2018-05-27T11:15:29.152Z,4956.00
2018-05-27T11:16:29.034Z,4656.00
2018-05-27T11:17:28.918Z,4276.00
2018-05-27T11:18:28.805Z,4140.00
2018-05-27T11:19:28.691Z,4320.00
2018-05-27T11:20:28.580Z,4520.00
2018-05-27T11:21:28.486Z,4964.00
2018-05-27T11:22:28.404Z,4808.00
2018-05-27T11:23:28.296Z,4848.00
2018-05-27T11:24:28.175Z,5356.00
2018-05-27T11:25:28.062Z,4816.00
2018-05-27T11:26:27.934Z,5544.00
2018-05-27T11:27:27.830Z,5992.00
2018-05-27T11:28:27.722Z,6556.00
2018-05-27T11:29:27.593Z,6696.00
2018-05-27T11:30:27.489Z,7192.00
2018-05-27T11:31:27.381Z,7052.00
2018-05-27T11:32:27.274Z,7940.00
2018-05-27T11:33:27.143Z,8616.00
2018-05-27T11:34:27.035Z,9000.00
2018-05-27T11:35:26.933Z,9368.00
2018-05-27T11:36:26.811Z,10004.00
2018-05-27T11:37:26.701Z,9640.00
2018-05-27T11:38:26.552Z,9004.00
2018-05-27T11:39:26.464Z,9500.00
2018-05-27T11:40:26.362Z,8980.00
2018-05-27T11:41:26.232Z,8632.00
2018-05-27T11:42:26.149Z,8228.00
2018-05-27T11:43:26.021Z,7340.00
2018-05-27T11:44:25.887Z,6820.00
2018-05-27T11:45:25.788Z,6036.00
2018-05-27T11:46:25.681Z,5380.00
2018-05-27T11:47:25.578Z,4888.00
2018-05-27T11:48:25.464Z,4612.00
2018-05-27T11:49:25.360Z,4432.00
2018-05-27T11:50:25.230Z,3848.00
2018-05-27T11:51:25.106Z,2876.00
2018-05-27T11:52:25.027Z,3084.00
2018-05-27T11:53:24.890Z,4164.00
2018-05-27T11:54:24.785Z,4368.00
2018-05-27T11:55:24.681Z,4460.00
2018-05-27T11:56:24.551Z,4704.00
2018-05-27T11:57:24.468Z,4676.00
2018-05-27T11:58:24.340Z,4600.00
2018-05-27T11:59:24.231Z,5776.00
2018-05-27T12:00:24.127Z,6824.00
2018-05-27T12:01:24.018Z,7452.00
2018-05-27T12:02:23.911Z,7316.00
2018-05-27T12:03:23.787Z,6928.00
2018-05-27T12:04:23.682Z,6328.00
2018-05-27T12:05:23.576Z,5400.00
2018-05-27T12:06:23.447Z,4604.00
2018-05-27T12:07:23.339Z,4428.00
2018-05-27T12:08:23.233Z,4660.00
2018-05-27T12:09:23.161Z,4476.00
2018-05-27T12:10:23.019Z,4976.00
2018-05-27T12:11:22.891Z,5288.00
2018-05-27T12:12:22.786Z,5292.00
2018-05-27T12:13:22.718Z,5576.00
2018-05-27T12:14:22.552Z,5984.00
2018-05-27T12:15:22.445Z,6100.00
2018-05-27T12:16:22.338Z,6220.00
2018-05-27T12:17:22.214Z,6408.00
2018-05-27T12:18:22.108Z,6448.00
2018-05-27T12:19:21.998Z,6684.00
2018-05-27T12:20:21.893Z,7312.00
2018-05-27T12:21:21.783Z,7936.00
2018-05-27T12:22:21.678Z,8080.00
2018-05-27T12:23:21.570Z,7352.00
2018-05-27T12:24:21.446Z,6728.00
2018-05-27T12:25:21.339Z,7128.00
2018-05-27T12:26:21.228Z,7616.00
2018-05-27T12:27:21.106Z,7680.00
2018-05-27T12:28:21.042Z,7500.00